sensor_id;sensor_type;location;lat;lon;timestamp;P1;durP1;ratioP1;P2;durP2;ratioP2
417;SDS011;49;48.530;9.200;2023-07-22T00:00:34;6.50;;;4.00;;
417;SDS011;49;48.530;9.200;2023-07-22T00:03:01;7.57;;;5.03;;
417;SDS011;49;48.530;9.200;2023-07-22T00:05:28;5.63;;;4.00;;
417;SDS011;49;48.530;9.200;2023-07-22T00:07:56;6.60;;;3.93;;
417;SDS011;49;48.530;9.200;2023-07-22T00:10:23;8.23;;;4.40;;
417;SDS011;49;48.530;9.200;2023-07-22T00:12:50;10.50;;;3.90;;
417;SDS011;49;48.530;9.200;2023-07-22T00:15:16;15.13;;;5.07;;
417;SDS011;49;48.530;9.200;2023-07-22T00:17:45;8.63;;;4.80;;
417;SDS011;49;48.530;9.200;2023-07-22T00:20:12;8.03;;;4.60;;
417;SDS011;49;48.530;9.200;2023-07-22T00:22:41;12.50;;;4.00;;
417;SDS011;49;48.530;9.200;2023-07-22T00:25:09;12.73;;;4.43;;
417;SDS011;49;48.530;9.200;2023-07-22T00:27:37;7.00;;;3.80;;
417;SDS011;49;48.530;9.200;2023-07-22T00:30:04;13.30;;;4.27;;
417;SDS011;49;48.530;9.200;2023-07-22T00:32:32;8.17;;;4.50;;
417;SDS011;49;48.530;9.200;2023-07-22T00:34:59;13.43;;;4.70;;
417;SDS011;49;48.530;9.200;2023-07-22T00:37:26;7.90;;;4.37;;
417;SDS011;49;48.530;9.200;2023-07-22T00:39:53;9.80;;;4.50;;
417;SDS011;49;48.530;9.200;2023-07-22T00:42:22;4.87;;;3.97;;
417;SDS011;49;48.530;9.200;2023-07-22T00:44:49;5.10;;;3.70;;
417;SDS011;49;48.530;9.200;2023-07-22T00:47:16;10.10;;;3.77;;
417;SDS011;49;48.530;9.200;2023-07-22T00:49:44;12.20;;;4.53;;
417;SDS011;49;48.530;9.200;2023-07-22T00:52:13;6.23;;;3.80;;
417;SDS011;49;48.530;9.200;2023-07-22T00:54:41;4.93;;;3.40;;
417;SDS011;49;48.530;9.200;2023-07-22T00:57:08;5.00;;;3.27;;
417;SDS011;49;48.530;9.200;2023-07-22T00:59:38;5.80;;;3.93;;
417;SDS011;49;48.530;9.200;2023-07-22T01:02:05;6.67;;;4.50;;
417;SDS011;49;48.530;9.200;2023-07-22T01:04:32;6.40;;;4.20;;
417;SDS011;49;48.530;9.200;2023-07-22T01:07:00;6.43;;;4.10;;
417;SDS011;49;48.530;9.200;2023-07-22T01:09:33;5.43;;;3.77;;
417;SDS011;49;48.530;9.200;2023-07-22T01:12:02;5.30;;;3.90;;
417;SDS011;49;48.530;9.200;2023-07-22T01:14:30;6.60;;;3.90;;
417;SDS011;49;48.530;9.200;2023-07-22T01:17:00;5.47;;;3.80;;
417;SDS011;49;48.530;9.200;2023-07-22T01:19:27;5.53;;;3.93;;
417;SDS011;49;48.530;9.200;2023-07-22T01:21:55;13.20;;;4.33;;
417;SDS011;49;48.530;9.200;2023-07-22T01:24:24;7.47;;;3.53;;
417;SDS011;49;48.530;9.200;2023-07-22T01:26:51;7.17;;;4.40;;
417;SDS011;49;48.530;9.200;2023-07-22T01:29:18;9.97;;;4.40;;
417;SDS011;49;48.530;9.200;2023-07-22T01:31:46;11.17;;;4.27;;
417;SDS011;49;48.530;9.200;2023-07-22T01:34:14;14.17;;;4.23;;
417;SDS011;49;48.530;9.200;2023-07-22T01:36:42;7.73;;;4.33;;
417;SDS011;49;48.530;9.200;2023-07-22T01:39:09;7.83;;;4.27;;
417;SDS011;49;48.530;9.200;2023-07-22T01:41:38;8.67;;;4.40;;
417;SDS011;49;48.530;9.200;2023-07-22T01:44:05;12.77;;;4.80;;
417;SDS011;49;48.530;9.200;2023-07-22T01:46:32;13.50;;;4.30;;
417;SDS011;49;48.530;9.200;2023-07-22T01:49:01;7.47;;;4.77;;
417;SDS011;49;48.530;9.200;2023-07-22T01:51:31;7.40;;;4.80;;
417;SDS011;49;48.530;9.200;2023-07-22T01:53:58;11.60;;;4.53;;
417;SDS011;49;48.530;9.200;2023-07-22T01:56:26;6.33;;;4.60;;
417;SDS011;49;48.530;9.200;2023-07-22T01:58:54;5.73;;;4.07;;
417;SDS011;49;48.530;9.200;2023-07-22T02:01:21;10.27;;;4.73;;
417;SDS011;49;48.530;9.200;2023-07-22T02:03:48;5.30;;;4.00;;
417;SDS011;49;48.530;9.200;2023-07-22T02:06:15;10.10;;;4.80;;
417;SDS011;49;48.530;9.200;2023-07-22T02:08:42;6.53;;;4.20;;
417;SDS011;49;48.530;9.200;2023-07-22T02:11:09;12.63;;;5.00;;
417;SDS011;49;48.530;9.200;2023-07-22T02:13:44;7.17;;;3.87;;
417;SDS011;49;48.530;9.200;2023-07-22T02:16:12;11.50;;;4.23;;
417;SDS011;49;48.530;9.200;2023-07-22T02:18:41;5.93;;;4.13;;
417;SDS011;49;48.530;9.200;2023-07-22T02:21:08;6.83;;;4.03;;
417;SDS011;49;48.530;9.200;2023-07-22T02:23:35;6.60;;;4.33;;
417;SDS011;49;48.530;9.200;2023-07-22T02:26:02;11.23;;;3.90;;
417;SDS011;49;48.530;9.200;2023-07-22T02:28:30;7.87;;;4.03;;
417;SDS011;49;48.530;9.200;2023-07-22T02:31:00;4.90;;;4.00;;
417;SDS011;49;48.530;9.200;2023-07-22T02:33:32;7.80;;;4.60;;
417;SDS011;49;48.530;9.200;2023-07-22T02:36:02;5.77;;;4.30;;
417;SDS011;49;48.530;9.200;2023-07-22T02:38:29;6.30;;;4.77;;
417;SDS011;49;48.530;9.200;2023-07-22T02:41:00;6.07;;;4.40;;
417;SDS011;49;48.530;9.200;2023-07-22T02:43:28;5.67;;;4.20;;
417;SDS011;49;48.530;9.200;2023-07-22T02:45:55;7.27;;;4.60;;
417;SDS011;49;48.530;9.200;2023-07-22T02:48:22;6.80;;;4.17;;
417;SDS011;49;48.530;9.200;2023-07-22T02:50:51;9.40;;;4.90;;
417;SDS011;49;48.530;9.200;2023-07-22T02:53:20;6.73;;;4.53;;
417;SDS011;49;48.530;9.200;2023-07-22T02:55:47;10.93;;;4.80;;
417;SDS011;49;48.530;9.200;2023-07-22T02:58:15;5.73;;;4.70;;
417;SDS011;49;48.530;9.200;2023-07-22T03:00:42;7.17;;;5.00;;
417;SDS011;49;48.530;9.200;2023-07-22T03:03:09;6.50;;;4.80;;
417;SDS011;49;48.530;9.200;2023-07-22T03:05:36;7.53;;;5.13;;
417;SDS011;49;48.530;9.200;2023-07-22T03:08:04;13.17;;;5.30;;
417;SDS011;49;48.530;9.200;2023-07-22T03:10:32;11.67;;;4.80;;
417;SDS011;49;48.530;9.200;2023-07-22T03:12:59;7.23;;;5.20;;
417;SDS011;49;48.530;9.200;2023-07-22T03:15:28;8.60;;;5.27;;
417;SDS011;49;48.530;9.200;2023-07-22T03:17:56;16.50;;;6.07;;
417;SDS011;49;48.530;9.200;2023-07-22T03:20:24;7.73;;;4.87;;
417;SDS011;49;48.530;9.200;2023-07-22T03:22:51;8.37;;;5.50;;
417;SDS011;49;48.530;9.200;2023-07-22T03:25:21;6.60;;;5.00;;
417;SDS011;49;48.530;9.200;2023-07-22T03:27:48;7.73;;;4.77;;
417;SDS011;49;48.530;9.200;2023-07-22T03:30:16;7.10;;;4.57;;
417;SDS011;49;48.530;9.200;2023-07-22T03:32:44;17.57;;;4.97;;
417;SDS011;49;48.530;9.200;2023-07-22T03:35:14;12.17;;;4.77;;
417;SDS011;49;48.530;9.200;2023-07-22T03:37:41;10.43;;;5.07;;
417;SDS011;49;48.530;9.200;2023-07-22T03:40:16;8.90;;;4.60;;
417;SDS011;49;48.530;9.200;2023-07-22T03:42:46;7.00;;;4.33;;
417;SDS011;49;48.530;9.200;2023-07-22T03:45:14;9.13;;;4.90;;
417;SDS011;49;48.530;9.200;2023-07-22T03:47:41;6.33;;;5.00;;
417;SDS011;49;48.530;9.200;2023-07-22T03:50:10;11.67;;;5.00;;
417;SDS011;49;48.530;9.200;2023-07-22T03:52:37;11.40;;;4.87;;
417;SDS011;49;48.530;9.200;2023-07-22T03:55:04;8.23;;;4.63;;
417;SDS011;49;48.530;9.200;2023-07-22T03:57:32;6.93;;;4.20;;
417;SDS011;49;48.530;9.200;2023-07-22T04:00:00;6.17;;;4.43;;
417;SDS011;49;48.530;9.200;2023-07-22T04:02:28;8.60;;;4.10;;
417;SDS011;49;48.530;9.200;2023-07-22T04:04:57;10.23;;;5.00;;
417;SDS011;49;48.530;9.200;2023-07-22T04:07:24;7.03;;;4.87;;
417;SDS011;49;48.530;9.200;2023-07-22T04:09:50;8.33;;;3.97;;
417;SDS011;49;48.530;9.200;2023-07-22T04:12:17;7.50;;;4.10;;
417;SDS011;49;48.530;9.200;2023-07-22T04:14:44;7.03;;;4.50;;
417;SDS011;49;48.530;9.200;2023-07-22T04:17:12;7.70;;;4.90;;
417;SDS011;49;48.530;9.200;2023-07-22T04:19:40;7.30;;;4.87;;
417;SDS011;49;48.530;9.200;2023-07-22T04:22:08;9.23;;;4.33;;
417;SDS011;49;48.530;9.200;2023-07-22T04:24:36;6.13;;;4.20;;
417;SDS011;49;48.530;9.200;2023-07-22T04:27:03;10.17;;;5.07;;
417;SDS011;49;48.530;9.200;2023-07-22T04:29:31;8.87;;;4.57;;
417;SDS011;49;48.530;9.200;2023-07-22T04:31:58;11.07;;;4.97;;
417;SDS011;49;48.530;9.200;2023-07-22T04:34:29;5.80;;;4.50;;
417;SDS011;49;48.530;9.200;2023-07-22T04:36:56;6.77;;;4.53;;
417;SDS011;49;48.530;9.200;2023-07-22T04:39:25;6.40;;;4.77;;
417;SDS011;49;48.530;9.200;2023-07-22T04:41:52;14.53;;;5.03;;
417;SDS011;49;48.530;9.200;2023-07-22T04:44:19;6.60;;;4.43;;
417;SDS011;49;48.530;9.200;2023-07-22T04:46:46;6.00;;;4.27;;
417;SDS011;49;48.530;9.200;2023-07-22T04:49:13;6.47;;;4.50;;
417;SDS011;49;48.530;9.200;2023-07-22T04:51:44;10.87;;;4.53;;
417;SDS011;49;48.530;9.200;2023-07-22T04:54:12;6.13;;;4.77;;
417;SDS011;49;48.530;9.200;2023-07-22T04:56:40;10.40;;;4.80;;
417;SDS011;49;48.530;9.200;2023-07-22T04:59:07;6.50;;;4.10;;
417;SDS011;49;48.530;9.200;2023-07-22T05:01:34;16.23;;;5.03;;
417;SDS011;49;48.530;9.200;2023-07-22T05:04:02;6.63;;;4.53;;
417;SDS011;49;48.530;9.200;2023-07-22T05:06:29;6.73;;;4.67;;
417;SDS011;49;48.530;9.200;2023-07-22T05:08:58;6.83;;;4.90;;
417;SDS011;49;48.530;9.200;2023-07-22T05:11:25;6.57;;;4.30;;
417;SDS011;49;48.530;9.200;2023-07-22T05:13:52;11.00;;;4.77;;
417;SDS011;49;48.530;9.200;2023-07-22T05:16:19;6.70;;;4.40;;
417;SDS011;49;48.530;9.200;2023-07-22T05:18:46;8.17;;;4.33;;
417;SDS011;49;48.530;9.200;2023-07-22T05:21:13;9.00;;;5.00;;
417;SDS011;49;48.530;9.200;2023-07-22T05:23:40;8.53;;;4.70;;
417;SDS011;49;48.530;9.200;2023-07-22T05:26:09;8.73;;;4.70;;
417;SDS011;49;48.530;9.200;2023-07-22T05:28:38;7.27;;;4.87;;
417;SDS011;49;48.530;9.200;2023-07-22T05:31:05;5.60;;;4.20;;
417;SDS011;49;48.530;9.200;2023-07-22T05:33:32;7.33;;;4.73;;
417;SDS011;49;48.530;9.200;2023-07-22T05:35:59;6.83;;;4.70;;
417;SDS011;49;48.530;9.200;2023-07-22T05:38:26;6.30;;;4.70;;
417;SDS011;49;48.530;9.200;2023-07-22T05:40:54;7.37;;;4.60;;
417;SDS011;49;48.530;9.200;2023-07-22T05:43:22;6.73;;;3.90;;
417;SDS011;49;48.530;9.200;2023-07-22T05:45:50;9.03;;;3.90;;
417;SDS011;49;48.530;9.200;2023-07-22T05:48:17;5.40;;;3.73;;
417;SDS011;49;48.530;9.200;2023-07-22T05:50:44;5.27;;;3.80;;
417;SDS011;49;48.530;9.200;2023-07-22T05:53:11;10.30;;;4.67;;
417;SDS011;49;48.530;9.200;2023-07-22T05:55:38;8.30;;;4.20;;
417;SDS011;49;48.530;9.200;2023-07-22T05:58:05;6.97;;;4.00;;
417;SDS011;49;48.530;9.200;2023-07-22T06:00:34;6.13;;;4.10;;
417;SDS011;49;48.530;9.200;2023-07-22T06:03:02;11.37;;;4.50;;
417;SDS011;49;48.530;9.200;2023-07-22T06:05:29;7.20;;;3.90;;
417;SDS011;49;48.530;9.200;2023-07-22T06:07:57;6.20;;;3.80;;
417;SDS011;49;48.530;9.200;2023-07-22T06:10:24;7.07;;;3.73;;
417;SDS011;49;48.530;9.200;2023-07-22T06:12:54;5.47;;;3.57;;
417;SDS011;49;48.530;9.200;2023-07-22T06:15:21;5.67;;;3.17;;
417;SDS011;49;48.530;9.200;2023-07-22T06:17:50;7.10;;;3.57;;
417;SDS011;49;48.530;9.200;2023-07-22T06:20:17;5.57;;;3.10;;
417;SDS011;49;48.530;9.200;2023-07-22T06:22:44;4.70;;;3.47;;
417;SDS011;49;48.530;9.200;2023-07-22T06:25:11;7.03;;;3.97;;
417;SDS011;49;48.530;9.200;2023-07-22T06:27:38;5.07;;;3.67;;
417;SDS011;49;48.530;9.200;2023-07-22T06:30:05;15.03;;;3.60;;
417;SDS011;49;48.530;9.200;2023-07-22T06:32:40;6.77;;;3.30;;
417;SDS011;49;48.530;9.200;2023-07-22T06:35:09;5.13;;;2.97;;
417;SDS011;49;48.530;9.200;2023-07-22T06:37:41;6.93;;;4.00;;
417;SDS011;49;48.530;9.200;2023-07-22T06:40:08;7.60;;;3.50;;
417;SDS011;49;48.530;9.200;2023-07-22T06:42:39;6.33;;;3.93;;
417;SDS011;49;48.530;9.200;2023-07-22T06:45:07;7.23;;;3.60;;
417;SDS011;49;48.530;9.200;2023-07-22T06:47:34;4.20;;;3.17;;
417;SDS011;49;48.530;9.200;2023-07-22T06:50:04;11.93;;;3.20;;
417;SDS011;49;48.530;9.200;2023-07-22T06:52:36;5.07;;;3.47;;
417;SDS011;49;48.530;9.200;2023-07-22T06:55:04;5.30;;;3.30;;
417;SDS011;49;48.530;9.200;2023-07-22T06:57:32;6.17;;;3.50;;
417;SDS011;49;48.530;9.200;2023-07-22T06:59:59;6.23;;;3.90;;
417;SDS011;49;48.530;9.200;2023-07-22T07:02:26;8.20;;;3.30;;
417;SDS011;49;48.530;9.200;2023-07-22T07:04:56;5.43;;;3.53;;
417;SDS011;49;48.530;9.200;2023-07-22T07:07:29;9.23;;;3.20;;
417;SDS011;49;48.530;9.200;2023-07-22T07:09:57;4.03;;;3.30;;
417;SDS011;49;48.530;9.200;2023-07-22T07:12:27;7.10;;;3.67;;
417;SDS011;49;48.530;9.200;2023-07-22T07:14:54;8.53;;;4.10;;
417;SDS011;49;48.530;9.200;2023-07-22T07:17:25;4.70;;;3.30;;
417;SDS011;49;48.530;9.200;2023-07-22T07:19:52;3.97;;;3.13;;
417;SDS011;49;48.530;9.200;2023-07-22T07:22:22;6.07;;;2.90;;
417;SDS011;49;48.530;9.200;2023-07-22T07:24:49;5.30;;;3.20;;
417;SDS011;49;48.530;9.200;2023-07-22T07:27:20;7.40;;;3.37;;
417;SDS011;49;48.530;9.200;2023-07-22T07:29:49;5.73;;;2.77;;
417;SDS011;49;48.530;9.200;2023-07-22T07:32:16;4.50;;;3.00;;
417;SDS011;49;48.530;9.200;2023-07-22T07:34:49;7.27;;;3.40;;
417;SDS011;49;48.530;9.200;2023-07-22T07:37:16;6.33;;;3.30;;
417;SDS011;49;48.530;9.200;2023-07-22T07:39:56;6.43;;;3.03;;
417;SDS011;49;48.530;9.200;2023-07-22T07:42:26;3.87;;;3.00;;
417;SDS011;49;48.530;9.200;2023-07-22T07:44:55;11.70;;;2.80;;
417;SDS011;49;48.530;9.200;2023-07-22T07:47:29;5.90;;;3.13;;
417;SDS011;49;48.530;9.200;2023-07-22T07:49:56;15.97;;;3.20;;
417;SDS011;49;48.530;9.200;2023-07-22T07:52:27;5.27;;;3.40;;
417;SDS011;49;48.530;9.200;2023-07-22T07:55:04;4.37;;;2.87;;
417;SDS011;49;48.530;9.200;2023-07-22T07:57:37;4.37;;;3.00;;
417;SDS011;49;48.530;9.200;2023-07-22T08:00:09;5.13;;;2.60;;
417;SDS011;49;48.530;9.200;2023-07-22T08:02:42;3.27;;;2.70;;
417;SDS011;49;48.530;9.200;2023-07-22T08:05:09;3.63;;;2.83;;
417;SDS011;49;48.530;9.200;2023-07-22T08:07:37;4.30;;;2.80;;
417;SDS011;49;48.530;9.200;2023-07-22T08:10:07;5.60;;;2.87;;
417;SDS011;49;48.530;9.200;2023-07-22T08:12:39;4.60;;;2.93;;
417;SDS011;49;48.530;9.200;2023-07-22T08:15:11;3.77;;;2.90;;
417;SDS011;49;48.530;9.200;2023-07-22T08:17:46;27.13;;;3.60;;
417;SDS011;49;48.530;9.200;2023-07-22T08:20:17;6.07;;;2.60;;
417;SDS011;49;48.530;9.200;2023-07-22T08:22:44;5.03;;;2.97;;
417;SDS011;49;48.530;9.200;2023-07-22T08:25:11;5.90;;;3.10;;
417;SDS011;49;48.530;9.200;2023-07-22T08:27:45;8.30;;;3.30;;
417;SDS011;49;48.530;9.200;2023-07-22T08:30:14;2.90;;;2.60;;
417;SDS011;49;48.530;9.200;2023-07-22T08:32:42;7.23;;;2.73;;
417;SDS011;49;48.530;9.200;2023-07-22T08:35:09;6.57;;;2.67;;
417;SDS011;49;48.530;9.200;2023-07-22T08:37:50;8.03;;;2.60;;
417;SDS011;49;48.530;9.200;2023-07-22T08:40:18;4.07;;;2.70;;
417;SDS011;49;48.530;9.200;2023-07-22T08:43:01;6.30;;;2.57;;
417;SDS011;49;48.530;9.200;2023-07-22T08:45:43;3.80;;;2.83;;
417;SDS011;49;48.530;9.200;2023-07-22T08:48:21;5.57;;;3.23;;
417;SDS011;49;48.530;9.200;2023-07-22T08:51:01;4.80;;;2.50;;
417;SDS011;49;48.530;9.200;2023-07-22T08:53:45;9.17;;;2.27;;
417;SDS011;49;48.530;9.200;2023-07-22T08:56:26;5.73;;;2.47;;
417;SDS011;49;48.530;9.200;2023-07-22T08:58:55;7.33;;;2.80;;
417;SDS011;49;48.530;9.200;2023-07-22T09:01:46;4.90;;;2.83;;
417;SDS011;49;48.530;9.200;2023-07-22T09:04:16;7.57;;;2.60;;
417;SDS011;49;48.530;9.200;2023-07-22T09:06:44;4.10;;;2.50;;
417;SDS011;49;48.530;9.200;2023-07-22T09:09:14;5.57;;;2.50;;
417;SDS011;49;48.530;9.200;2023-07-22T09:11:43;4.07;;;2.93;;
417;SDS011;49;48.530;9.200;2023-07-22T09:14:14;6.60;;;2.90;;
417;SDS011;49;48.530;9.200;2023-07-22T09:16:44;5.87;;;2.70;;
417;SDS011;49;48.530;9.200;2023-07-22T09:19:12;5.63;;;2.93;;
417;SDS011;49;48.530;9.200;2023-07-22T09:21:39;2.73;;;2.10;;
417;SDS011;49;48.530;9.200;2023-07-22T09:24:19;5.80;;;2.70;;
417;SDS011;49;48.530;9.200;2023-07-22T09:26:54;4.63;;;3.10;;
417;SDS011;49;48.530;9.200;2023-07-22T09:29:40;3.03;;;2.50;;
417;SDS011;49;48.530;9.200;2023-07-22T09:32:29;2.77;;;2.50;;
417;SDS011;49;48.530;9.200;2023-07-22T09:35:23;5.03;;;2.40;;
417;SDS011;49;48.530;9.200;2023-07-22T09:38:08;5.37;;;2.50;;
417;SDS011;49;48.530;9.200;2023-07-22T09:40:35;2.17;;;2.03;;
417;SDS011;49;48.530;9.200;2023-07-22T09:43:18;2.73;;;2.40;;
417;SDS011;49;48.530;9.200;2023-07-22T09:45:47;2.53;;;2.30;;
417;SDS011;49;48.530;9.200;2023-07-22T09:48:15;5.70;;;2.70;;
417;SDS011;49;48.530;9.200;2023-07-22T09:50:55;2.50;;;2.13;;
417;SDS011;49;48.530;9.200;2023-07-22T09:53:24;5.57;;;2.83;;
417;SDS011;49;48.530;9.200;2023-07-22T09:55:54;6.60;;;2.40;;
417;SDS011;49;48.530;9.200;2023-07-22T09:58:24;2.83;;;2.27;;
417;SDS011;49;48.530;9.200;2023-07-22T10:01:03;5.17;;;2.13;;
417;SDS011;49;48.530;9.200;2023-07-22T10:03:35;3.77;;;2.23;;
417;SDS011;49;48.530;9.200;2023-07-22T10:06:13;9.73;;;2.63;;
417;SDS011;49;48.530;9.200;2023-07-22T10:08:44;5.73;;;2.40;;
417;SDS011;49;48.530;9.200;2023-07-22T10:11:14;5.77;;;2.60;;
417;SDS011;49;48.530;9.200;2023-07-22T10:13:47;10.50;;;3.30;;
417;SDS011;49;48.530;9.200;2023-07-22T10:16:18;8.17;;;2.50;;
417;SDS011;49;48.530;9.200;2023-07-22T10:18:59;3.93;;;2.43;;
417;SDS011;49;48.530;9.200;2023-07-22T10:21:27;6.90;;;2.60;;
417;SDS011;49;48.530;9.200;2023-07-22T10:23:56;5.07;;;2.33;;
417;SDS011;49;48.530;9.200;2023-07-22T10:26:28;2.83;;;2.20;;
417;SDS011;49;48.530;9.200;2023-07-22T10:29:03;9.67;;;3.03;;
417;SDS011;49;48.530;9.200;2023-07-22T10:31:41;3.23;;;2.50;;
417;SDS011;49;48.530;9.200;2023-07-22T10:34:20;3.73;;;2.80;;
417;SDS011;49;48.530;9.200;2023-07-22T10:36:49;7.30;;;2.53;;
417;SDS011;49;48.530;9.200;2023-07-22T10:39:24;4.03;;;2.60;;
417;SDS011;49;48.530;9.200;2023-07-22T10:42:00;4.67;;;2.40;;
417;SDS011;49;48.530;9.200;2023-07-22T10:44:30;3.70;;;2.60;;
417;SDS011;49;48.530;9.200;2023-07-22T10:47:00;5.87;;;4.13;;
417;SDS011;49;48.530;9.200;2023-07-22T10:49:42;11.50;;;5.10;;
417;SDS011;49;48.530;9.200;2023-07-22T10:52:11;13.23;;;5.47;;
417;SDS011;49;48.530;9.200;2023-07-22T10:54:47;11.43;;;3.97;;
417;SDS011;49;48.530;9.200;2023-07-22T10:57:22;7.37;;;2.90;;
417;SDS011;49;48.530;9.200;2023-07-22T10:59:50;6.37;;;3.43;;
417;SDS011;49;48.530;9.200;2023-07-22T11:02:27;3.73;;;3.03;;
417;SDS011;49;48.530;9.200;2023-07-22T11:05:05;5.30;;;3.10;;
417;SDS011;49;48.530;9.200;2023-07-22T11:07:32;11.80;;;6.10;;
417;SDS011;49;48.530;9.200;2023-07-22T11:10:13;3.80;;;2.90;;
417;SDS011;49;48.530;9.200;2023-07-22T11:12:45;4.50;;;3.23;;
417;SDS011;49;48.530;9.200;2023-07-22T11:15:19;6.20;;;2.90;;
417;SDS011;49;48.530;9.200;2023-07-22T11:17:57;8.90;;;3.53;;
417;SDS011;49;48.530;9.200;2023-07-22T11:20:33;5.57;;;2.50;;
417;SDS011;49;48.530;9.200;2023-07-22T11:23:03;6.70;;;2.70;;
417;SDS011;49;48.530;9.200;2023-07-22T11:25:38;6.13;;;3.20;;
417;SDS011;49;48.530;9.200;2023-07-22T11:28:15;3.97;;;2.67;;
417;SDS011;49;48.530;9.200;2023-07-22T11:30:52;6.37;;;3.20;;
417;SDS011;49;48.530;9.200;2023-07-22T11:33:40;5.60;;;3.00;;
417;SDS011;49;48.530;9.200;2023-07-22T11:36:39;5.83;;;2.83;;
417;SDS011;49;48.530;9.200;2023-07-22T11:39:16;4.37;;;2.70;;
417;SDS011;49;48.530;9.200;2023-07-22T11:42:03;4.63;;;2.90;;
417;SDS011;49;48.530;9.200;2023-07-22T11:44:41;6.83;;;3.10;;
417;SDS011;49;48.530;9.200;2023-07-22T11:47:11;6.27;;;3.33;;
417;SDS011;49;48.530;9.200;2023-07-22T11:49:46;5.80;;;2.90;;
417;SDS011;49;48.530;9.200;2023-07-22T11:52:18;3.67;;;2.73;;
417;SDS011;49;48.530;9.200;2023-07-22T11:54:48;6.00;;;3.13;;
417;SDS011;49;48.530;9.200;2023-07-22T11:57:18;6.27;;;2.80;;
417;SDS011;49;48.530;9.200;2023-07-22T11:59:47;9.07;;;3.13;;
417;SDS011;49;48.530;9.200;2023-07-22T12:02:22;3.93;;;3.03;;
417;SDS011;49;48.530;9.200;2023-07-22T12:04:53;9.43;;;2.90;;
417;SDS011;49;48.530;9.200;2023-07-22T12:07:29;5.83;;;3.00;;
417;SDS011;49;48.530;9.200;2023-07-22T12:09:59;7.00;;;3.10;;
417;SDS011;49;48.530;9.200;2023-07-22T12:12:32;7.87;;;3.50;;
417;SDS011;49;48.530;9.200;2023-07-22T12:15:01;4.20;;;3.10;;
417;SDS011;49;48.530;9.200;2023-07-22T12:17:32;4.90;;;3.27;;
417;SDS011;49;48.530;9.200;2023-07-22T12:20:12;4.80;;;3.23;;
417;SDS011;49;48.530;9.200;2023-07-22T12:22:40;11.20;;;2.93;;
417;SDS011;49;48.530;9.200;2023-07-22T12:25:09;10.40;;;3.10;;
417;SDS011;49;48.530;9.200;2023-07-22T12:27:37;4.07;;;2.80;;
417;SDS011;49;48.530;9.200;2023-07-22T12:30:12;4.73;;;3.00;;
417;SDS011;49;48.530;9.200;2023-07-22T12:32:40;5.90;;;2.97;;
417;SDS011;49;48.530;9.200;2023-07-22T12:35:09;9.40;;;2.90;;
417;SDS011;49;48.530;9.200;2023-07-22T12:37:39;5.50;;;3.27;;
417;SDS011;49;48.530;9.200;2023-07-22T12:40:09;9.83;;;3.77;;
417;SDS011;49;48.530;9.200;2023-07-22T12:42:53;7.47;;;3.00;;
417;SDS011;49;48.530;9.200;2023-07-22T12:45:20;4.70;;;3.10;;
417;SDS011;49;48.530;9.200;2023-07-22T12:47:47;7.33;;;2.83;;
417;SDS011;49;48.530;9.200;2023-07-22T12:50:21;6.53;;;3.20;;
417;SDS011;49;48.530;9.200;2023-07-22T12:52:52;5.70;;;3.07;;
417;SDS011;49;48.530;9.200;2023-07-22T12:55:21;3.77;;;3.20;;
417;SDS011;49;48.530;9.200;2023-07-22T12:57:54;8.93;;;3.23;;
417;SDS011;49;48.530;9.200;2023-07-22T13:00:23;4.70;;;3.10;;
417;SDS011;49;48.530;9.200;2023-07-22T13:02:50;4.77;;;2.83;;
417;SDS011;49;48.530;9.200;2023-07-22T13:05:28;4.70;;;3.00;;
417;SDS011;49;48.530;9.200;2023-07-22T13:08:00;5.40;;;3.30;;
417;SDS011;49;48.530;9.200;2023-07-22T13:10:36;17.53;;;3.23;;
417;SDS011;49;48.530;9.200;2023-07-22T13:13:12;6.40;;;3.03;;
417;SDS011;49;48.530;9.200;2023-07-22T13:15:42;4.83;;;3.37;;
417;SDS011;49;48.530;9.200;2023-07-22T13:18:15;4.60;;;2.90;;
417;SDS011;49;48.530;9.200;2023-07-22T13:20:44;6.37;;;3.43;;
417;SDS011;49;48.530;9.200;2023-07-22T13:23:11;6.03;;;3.80;;
417;SDS011;49;48.530;9.200;2023-07-22T13:25:38;3.93;;;2.90;;
417;SDS011;49;48.530;9.200;2023-07-22T13:28:10;7.83;;;3.77;;
417;SDS011;49;48.530;9.200;2023-07-22T13:30:38;6.40;;;3.30;;
417;SDS011;49;48.530;9.200;2023-07-22T13:33:14;5.30;;;2.80;;
417;SDS011;49;48.530;9.200;2023-07-22T13:35:47;6.17;;;4.50;;
417;SDS011;49;48.530;9.200;2023-07-22T13:38:15;7.00;;;3.40;;
417;SDS011;49;48.530;9.200;2023-07-22T13:40:42;6.50;;;3.70;;
417;SDS011;49;48.530;9.200;2023-07-22T13:43:09;10.23;;;3.43;;
417;SDS011;49;48.530;9.200;2023-07-22T13:45:49;5.87;;;3.70;;
417;SDS011;49;48.530;9.200;2023-07-22T13:48:30;4.80;;;3.70;;
417;SDS011;49;48.530;9.200;2023-07-22T13:51:04;5.30;;;3.67;;
417;SDS011;49;48.530;9.200;2023-07-22T13:53:36;17.83;;;3.87;;
417;SDS011;49;48.530;9.200;2023-07-22T13:56:03;5.07;;;3.57;;
417;SDS011;49;48.530;9.200;2023-07-22T13:58:30;4.10;;;3.10;;
417;SDS011;49;48.530;9.200;2023-07-22T14:00:57;8.83;;;3.40;;
417;SDS011;49;48.530;9.200;2023-07-22T14:03:34;6.10;;;3.80;;
417;SDS011;49;48.530;9.200;2023-07-22T14:06:01;5.37;;;3.80;;
417;SDS011;49;48.530;9.200;2023-07-22T14:11:19;6.30;;;3.87;;
417;SDS011;49;48.530;9.200;2023-07-22T14:13:46;5.53;;;4.07;;
417;SDS011;49;48.530;9.200;2023-07-22T14:16:17;15.27;;;3.60;;
417;SDS011;49;48.530;9.200;2023-07-22T14:18:47;7.17;;;3.47;;
417;SDS011;49;48.530;9.200;2023-07-22T14:21:16;7.30;;;3.60;;
417;SDS011;49;48.530;9.200;2023-07-22T14:23:47;4.77;;;3.33;;
417;SDS011;49;48.530;9.200;2023-07-22T14:26:22;7.77;;;4.10;;
417;SDS011;49;48.530;9.200;2023-07-22T14:28:49;6.47;;;4.27;;
417;SDS011;49;48.530;9.200;2023-07-22T14:31:18;13.43;;;4.10;;
417;SDS011;49;48.530;9.200;2023-07-22T14:33:47;9.53;;;4.63;;
417;SDS011;49;48.530;9.200;2023-07-22T14:36:15;6.40;;;3.90;;
417;SDS011;49;48.530;9.200;2023-07-22T14:38:43;7.73;;;4.70;;
417;SDS011;49;48.530;9.200;2023-07-22T14:41:12;9.20;;;4.20;;
417;SDS011;49;48.530;9.200;2023-07-22T14:43:41;6.70;;;4.37;;
417;SDS011;49;48.530;9.200;2023-07-22T14:46:09;8.30;;;4.40;;
417;SDS011;49;48.530;9.200;2023-07-22T14:48:41;7.23;;;4.03;;
417;SDS011;49;48.530;9.200;2023-07-22T14:51:12;5.33;;;3.93;;
417;SDS011;49;48.530;9.200;2023-07-22T14:53:41;5.17;;;4.33;;
417;SDS011;49;48.530;9.200;2023-07-22T14:56:08;5.93;;;4.27;;
417;SDS011;49;48.530;9.200;2023-07-22T14:58:35;13.73;;;4.10;;
417;SDS011;49;48.530;9.200;2023-07-22T15:01:03;5.23;;;3.90;;
417;SDS011;49;48.530;9.200;2023-07-22T15:03:31;6.83;;;4.30;;
417;SDS011;49;48.530;9.200;2023-07-22T15:06:07;10.40;;;4.30;;
417;SDS011;49;48.530;9.200;2023-07-22T15:08:34;7.23;;;4.23;;
417;SDS011;49;48.530;9.200;2023-07-22T15:11:04;19.10;;;4.33;;
417;SDS011;49;48.530;9.200;2023-07-22T15:13:33;7.03;;;3.77;;
417;SDS011;49;48.530;9.200;2023-07-22T15:16:03;7.40;;;4.33;;
417;SDS011;49;48.530;9.200;2023-07-22T15:18:33;5.63;;;3.97;;
417;SDS011;49;48.530;9.200;2023-07-22T15:21:03;9.83;;;4.30;;
417;SDS011;49;48.530;9.200;2023-07-22T15:23:30;7.00;;;3.87;;
417;SDS011;49;48.530;9.200;2023-07-22T15:26:00;13.43;;;4.30;;
417;SDS011;49;48.530;9.200;2023-07-22T15:28:29;8.20;;;4.50;;
417;SDS011;49;48.530;9.200;2023-07-22T15:31:08;5.17;;;3.67;;
417;SDS011;49;48.530;9.200;2023-07-22T15:33:44;5.90;;;4.53;;
417;SDS011;49;48.530;9.200;2023-07-22T15:36:11;7.40;;;4.30;;
417;SDS011;49;48.530;9.200;2023-07-22T15:38:38;7.83;;;3.90;;
417;SDS011;49;48.530;9.200;2023-07-22T15:41:08;9.93;;;4.80;;
417;SDS011;49;48.530;9.200;2023-07-22T15:43:37;5.70;;;3.80;;
417;SDS011;49;48.530;9.200;2023-07-22T15:46:13;6.07;;;3.93;;
417;SDS011;49;48.530;9.200;2023-07-22T15:48:48;5.43;;;3.83;;
417;SDS011;49;48.530;9.200;2023-07-22T15:51:15;5.00;;;4.10;;
417;SDS011;49;48.530;9.200;2023-07-22T15:53:44;8.90;;;3.60;;
417;SDS011;49;48.530;9.200;2023-07-22T15:56:11;5.60;;;3.90;;
417;SDS011;49;48.530;9.200;2023-07-22T15:58:41;5.73;;;4.07;;
417;SDS011;49;48.530;9.200;2023-07-22T16:01:14;7.47;;;4.43;;
417;SDS011;49;48.530;9.200;2023-07-22T16:03:48;6.60;;;3.87;;
417;SDS011;49;48.530;9.200;2023-07-22T16:06:15;6.60;;;4.40;;
417;SDS011;49;48.530;9.200;2023-07-22T16:08:41;9.93;;;5.20;;
417;SDS011;49;48.530;9.200;2023-07-22T16:11:08;7.60;;;4.73;;
417;SDS011;49;48.530;9.200;2023-07-22T16:13:35;11.20;;;4.57;;
417;SDS011;49;48.530;9.200;2023-07-22T16:16:05;8.03;;;4.10;;
417;SDS011;49;48.530;9.200;2023-07-22T16:18:37;10.00;;;4.07;;
417;SDS011;49;48.530;9.200;2023-07-22T16:21:12;10.33;;;3.67;;